sensor_id;sensor_type;location;lat;lon;timestamp;P1;durP1;ratioP1;P2;durP2;ratioP2
67747;SDS011;54543;50.712;6.070;2023-04-16T00:00:30;1.40;;;1.30;;
67747;SDS011;54543;50.712;6.070;2023-04-16T00:02:55;1.05;;;0.95;;
67747;SDS011;54543;50.712;6.070;2023-04-16T00:05:21;0.98;;;0.88;;
67747;SDS011;54543;50.712;6.070;2023-04-16T00:07:46;0.85;;;0.85;;
67747;SDS011;54543;50.712;6.070;2023-04-16T00:10:12;2.63;;;1.40;;
67747;SDS011;54543;50.712;6.070;2023-04-16T00:12:38;1.45;;;1.10;;
67747;SDS011;54543;50.712;6.070;2023-04-16T00:15:03;0.95;;;0.85;;
67747;SDS011;54543;50.712;6.070;2023-04-16T00:17:29;1.30;;;1.17;;
67747;SDS011;54543;50.712;6.070;2023-04-16T00:19:55;1.13;;;1.02;;
67747;SDS011;54543;50.712;6.070;2023-04-16T00:22:20;1.10;;;1.05;;
67747;SDS011;54543;50.712;6.070;2023-04-16T00:24:46;1.92;;;1.15;;
67747;SDS011;54543;50.712;6.070;2023-04-16T00:27:11;2.42;;;1.23;;
67747;SDS011;54543;50.712;6.070;2023-04-16T00:29:37;1.55;;;1.25;;
67747;SDS011;54543;50.712;6.070;2023-04-16T00:32:02;1.45;;;1.35;;
67747;SDS011;54543;50.712;6.070;2023-04-16T00:34:28;1.90;;;1.40;;
67747;SDS011;54543;50.712;6.070;2023-04-16T00:36:53;1.52;;;1.33;;
67747;SDS011;54543;50.712;6.070;2023-04-16T00:39:18;1.75;;;1.35;;
67747;SDS011;54543;50.712;6.070;2023-04-16T00:41:44;3.90;;;2.22;;
67747;SDS011;54543;50.712;6.070;2023-04-16T00:44:10;2.55;;;1.63;;
67747;SDS011;54543;50.712;6.070;2023-04-16T00:46:35;2.60;;;1.75;;
67747;SDS011;54543;50.712;6.070;2023-04-16T00:49:02;1.95;;;1.45;;
67747;SDS011;54543;50.712;6.070;2023-04-16T00:51:28;2.78;;;1.60;;
67747;SDS011;54543;50.712;6.070;2023-04-16T00:53:54;3.17;;;1.60;;
67747;SDS011;54543;50.712;6.070;2023-04-16T00:56:21;3.08;;;2.38;;
67747;SDS011;54543;50.712;6.070;2023-04-16T00:58:48;3.47;;;2.50;;
67747;SDS011;54543;50.712;6.070;2023-04-16T01:01:14;5.60;;;3.00;;
67747;SDS011;54543;50.712;6.070;2023-04-16T01:03:42;5.25;;;2.80;;
67747;SDS011;54543;50.712;6.070;2023-04-16T01:06:09;5.03;;;3.20;;
67747;SDS011;54543;50.712;6.070;2023-04-16T01:08:35;4.95;;;3.28;;
67747;SDS011;54543;50.712;6.070;2023-04-16T01:11:01;3.53;;;2.22;;
67747;SDS011;54543;50.712;6.070;2023-04-16T01:13:27;4.15;;;2.95;;
67747;SDS011;54543;50.712;6.070;2023-04-16T01:15:53;5.70;;;2.65;;
67747;SDS011;54543;50.712;6.070;2023-04-16T01:18:20;3.67;;;2.47;;
67747;SDS011;54543;50.712;6.070;2023-04-16T01:20:47;4.65;;;3.00;;
67747;SDS011;54543;50.712;6.070;2023-04-16T01:23:13;3.88;;;2.50;;
67747;SDS011;54543;50.712;6.070;2023-04-16T01:25:39;5.55;;;2.88;;
67747;SDS011;54543;50.712;6.070;2023-04-16T01:28:05;4.50;;;3.13;;
67747;SDS011;54543;50.712;6.070;2023-04-16T01:30:31;3.38;;;2.10;;
67747;SDS011;54543;50.712;6.070;2023-04-16T01:32:57;4.90;;;2.97;;
67747;SDS011;54543;50.712;6.070;2023-04-16T01:35:23;3.08;;;1.92;;
67747;SDS011;54543;50.712;6.070;2023-04-16T01:37:49;3.83;;;2.38;;
67747;SDS011;54543;50.712;6.070;2023-04-16T01:40:15;4.28;;;2.97;;
67747;SDS011;54543;50.712;6.070;2023-04-16T01:42:41;4.10;;;2.90;;
67747;SDS011;54543;50.712;6.070;2023-04-16T01:45:07;2.60;;;1.83;;
67747;SDS011;54543;50.712;6.070;2023-04-16T01:47:32;3.72;;;2.63;;
67747;SDS011;54543;50.712;6.070;2023-04-16T01:49:58;4.15;;;2.58;;
67747;SDS011;54543;50.712;6.070;2023-04-16T01:52:25;2.33;;;1.60;;
67747;SDS011;54543;50.712;6.070;2023-04-16T01:54:50;3.40;;;2.50;;
67747;SDS011;54543;50.712;6.070;2023-04-16T01:57:15;2.78;;;2.13;;
67747;SDS011;54543;50.712;6.070;2023-04-16T01:59:41;4.53;;;2.70;;
67747;SDS011;54543;50.712;6.070;2023-04-16T02:02:08;4.50;;;3.13;;
67747;SDS011;54543;50.712;6.070;2023-04-16T02:04:36;3.58;;;2.20;;
67747;SDS011;54543;50.712;6.070;2023-04-16T02:07:02;3.50;;;2.38;;
67747;SDS011;54543;50.712;6.070;2023-04-16T02:09:29;3.90;;;2.78;;
67747;SDS011;54543;50.712;6.070;2023-04-16T02:11:55;4.70;;;2.85;;
67747;SDS011;54543;50.712;6.070;2023-04-16T02:14:20;3.50;;;2.47;;
67747;SDS011;54543;50.712;6.070;2023-04-16T02:16:49;4.30;;;3.03;;
67747;SDS011;54543;50.712;6.070;2023-04-16T02:19:15;3.50;;;2.47;;
67747;SDS011;54543;50.712;6.070;2023-04-16T02:21:41;4.65;;;2.63;;
67747;SDS011;54543;50.712;6.070;2023-04-16T02:24:06;3.92;;;2.63;;
67747;SDS011;54543;50.712;6.070;2023-04-16T02:26:32;3.85;;;2.25;;
67747;SDS011;54543;50.712;6.070;2023-04-16T02:28:58;4.93;;;3.15;;
67747;SDS011;54543;50.712;6.070;2023-04-16T02:31:23;2.67;;;1.80;;
67747;SDS011;54543;50.712;6.070;2023-04-16T02:33:49;3.40;;;2.30;;
67747;SDS011;54543;50.712;6.070;2023-04-16T02:36:14;4.00;;;2.30;;
67747;SDS011;54543;50.712;6.070;2023-04-16T02:38:40;3.08;;;2.17;;
67747;SDS011;54543;50.712;6.070;2023-04-16T02:41:06;4.00;;;2.65;;
67747;SDS011;54543;50.712;6.070;2023-04-16T02:43:31;3.30;;;2.25;;
67747;SDS011;54543;50.712;6.070;2023-04-16T02:45:57;3.90;;;2.50;;
67747;SDS011;54543;50.712;6.070;2023-04-16T02:48:23;3.25;;;2.08;;
67747;SDS011;54543;50.712;6.070;2023-04-16T02:50:49;3.75;;;2.72;;
67747;SDS011;54543;50.712;6.070;2023-04-16T02:53:15;4.60;;;2.85;;
67747;SDS011;54543;50.712;6.070;2023-04-16T02:55:40;3.40;;;2.22;;
67747;SDS011;54543;50.712;6.070;2023-04-16T02:58:06;4.38;;;2.75;;
67747;SDS011;54543;50.712;6.070;2023-04-16T03:00:31;4.35;;;2.60;;
67747;SDS011;54543;50.712;6.070;2023-04-16T03:02:57;4.15;;;2.70;;
67747;SDS011;54543;50.712;6.070;2023-04-16T03:05:22;3.90;;;2.53;;
67747;SDS011;54543;50.712;6.070;2023-04-16T03:07:48;3.53;;;2.50;;
67747;SDS011;54543;50.712;6.070;2023-04-16T03:10:14;7.93;;;3.70;;
67747;SDS011;54543;50.712;6.070;2023-04-16T03:12:40;4.07;;;2.22;;
67747;SDS011;54543;50.712;6.070;2023-04-16T03:15:06;4.57;;;3.00;;
67747;SDS011;54543;50.712;6.070;2023-04-16T03:17:32;6.53;;;2.97;;
67747;SDS011;54543;50.712;6.070;2023-04-16T03:19:57;5.70;;;3.35;;
67747;SDS011;54543;50.712;6.070;2023-04-16T03:22:23;5.43;;;3.83;;
67747;SDS011;54543;50.712;6.070;2023-04-16T03:24:49;3.75;;;2.63;;
67747;SDS011;54543;50.712;6.070;2023-04-16T03:27:14;6.38;;;2.97;;
67747;SDS011;54543;50.712;6.070;2023-04-16T03:29:40;5.32;;;3.28;;
67747;SDS011;54543;50.712;6.070;2023-04-16T03:32:05;6.18;;;2.63;;
67747;SDS011;54543;50.712;6.070;2023-04-16T03:34:31;2.10;;;1.58;;
67747;SDS011;54543;50.712;6.070;2023-04-16T03:36:56;6.63;;;2.97;;
67747;SDS011;54543;50.712;6.070;2023-04-16T03:39:22;8.90;;;3.92;;
67747;SDS011;54543;50.712;6.070;2023-04-16T03:41:47;8.60;;;2.67;;
67747;SDS011;54543;50.712;6.070;2023-04-16T03:44:13;12.20;;;2.80;;
67747;SDS011;54543;50.712;6.070;2023-04-16T03:46:38;11.52;;;2.97;;
67747;SDS011;54543;50.712;6.070;2023-04-16T03:49:04;34.63;;;3.88;;
67747;SDS011;54543;50.712;6.070;2023-04-16T03:51:30;13.07;;;3.08;;
67747;SDS011;54543;50.712;6.070;2023-04-16T03:53:56;24.40;;;4.10;;
67747;SDS011;54543;50.712;6.070;2023-04-16T03:56:21;15.40;;;3.55;;
67747;SDS011;54543;50.712;6.070;2023-04-16T03:58:47;12.00;;;3.03;;
67747;SDS011;54543;50.712;6.070;2023-04-16T04:01:12;9.13;;;2.78;;
67747;SDS011;54543;50.712;6.070;2023-04-16T04:03:37;8.57;;;2.58;;
67747;SDS011;54543;50.712;6.070;2023-04-16T04:06:09;3.97;;;2.30;;
67747;SDS011;54543;50.712;6.070;2023-04-16T04:08:34;9.48;;;2.65;;
67747;SDS011;54543;50.712;6.070;2023-04-16T04:11:00;6.00;;;2.72;;
67747;SDS011;54543;50.712;6.070;2023-04-16T04:13:26;18.75;;;3.10;;
67747;SDS011;54543;50.712;6.070;2023-04-16T04:15:51;7.07;;;2.72;;
67747;SDS011;54543;50.712;6.070;2023-04-16T04:18:17;13.10;;;2.28;;
67747;SDS011;54543;50.712;6.070;2023-04-16T04:20:43;11.52;;;2.47;;
67747;SDS011;54543;50.712;6.070;2023-04-16T04:23:09;15.85;;;2.55;;
67747;SDS011;54543;50.712;6.070;2023-04-16T04:25:34;24.02;;;2.70;;
67747;SDS011;54543;50.712;6.070;2023-04-16T04:28:00;13.07;;;3.03;;
67747;SDS011;54543;50.712;6.070;2023-04-16T04:30:25;12.95;;;2.85;;
67747;SDS011;54543;50.712;6.070;2023-04-16T04:32:51;10.77;;;2.85;;
67747;SDS011;54543;50.712;6.070;2023-04-16T04:35:16;12.93;;;2.70;;
67747;SDS011;54543;50.712;6.070;2023-04-16T04:37:42;11.30;;;3.22;;
67747;SDS011;54543;50.712;6.070;2023-04-16T04:40:08;6.00;;;2.75;;
67747;SDS011;54543;50.712;6.070;2023-04-16T04:42:33;9.27;;;3.03;;
67747;SDS011;54543;50.712;6.070;2023-04-16T04:44:59;9.75;;;3.13;;
67747;SDS011;54543;50.712;6.070;2023-04-16T04:47:25;4.03;;;2.00;;
67747;SDS011;54543;50.712;6.070;2023-04-16T04:49:51;5.20;;;1.75;;
67747;SDS011;54543;50.712;6.070;2023-04-16T04:52:16;8.10;;;2.80;;
67747;SDS011;54543;50.712;6.070;2023-04-16T04:54:42;7.30;;;2.28;;
67747;SDS011;54543;50.712;6.070;2023-04-16T04:57:07;20.92;;;3.00;;
67747;SDS011;54543;50.712;6.070;2023-04-16T04:59:33;4.00;;;2.72;;
67747;SDS011;54543;50.712;6.070;2023-04-16T05:01:58;13.27;;;3.03;;
67747;SDS011;54543;50.712;6.070;2023-04-16T05:04:24;4.90;;;2.58;;
67747;SDS011;54543;50.712;6.070;2023-04-16T05:06:50;4.70;;;2.47;;
67747;SDS011;54543;50.712;6.070;2023-04-16T05:09:16;12.63;;;3.25;;
67747;SDS011;54543;50.712;6.070;2023-04-16T05:11:41;9.80;;;2.75;;
67747;SDS011;54543;50.712;6.070;2023-04-16T05:14:07;4.28;;;2.92;;
67747;SDS011;54543;50.712;6.070;2023-04-16T05:16:36;3.85;;;2.45;;
67747;SDS011;54543;50.712;6.070;2023-04-16T05:19:02;4.97;;;2.10;;
67747;SDS011;54543;50.712;6.070;2023-04-16T05:21:28;4.25;;;2.90;;
67747;SDS011;54543;50.712;6.070;2023-04-16T05:23:53;3.60;;;2.38;;
67747;SDS011;54543;50.712;6.070;2023-04-16T05:26:19;4.07;;;2.75;;
67747;SDS011;54543;50.712;6.070;2023-04-16T05:28:44;4.88;;;2.83;;
67747;SDS011;54543;50.712;6.070;2023-04-16T05:31:10;3.83;;;1.88;;
67747;SDS011;54543;50.712;6.070;2023-04-16T05:33:36;6.10;;;3.10;;
67747;SDS011;54543;50.712;6.070;2023-04-16T05:36:01;4.60;;;2.90;;
67747;SDS011;54543;50.712;6.070;2023-04-16T05:38:27;7.32;;;3.00;;
67747;SDS011;54543;50.712;6.070;2023-04-16T05:40:52;5.10;;;3.10;;
67747;SDS011;54543;50.712;6.070;2023-04-16T05:43:18;4.35;;;3.00;;
67747;SDS011;54543;50.712;6.070;2023-04-16T05:45:43;9.48;;;2.65;;
67747;SDS011;54543;50.712;6.070;2023-04-16T05:48:09;6.28;;;3.15;;
67747;SDS011;54543;50.712;6.070;2023-04-16T05:50:35;5.35;;;2.95;;
67747;SDS011;54543;50.712;6.070;2023-04-16T05:53:01;2.67;;;1.88;;
67747;SDS011;54543;50.712;6.070;2023-04-16T05:55:28;3.17;;;2.22;;
67747;SDS011;54543;50.712;6.070;2023-04-16T05:57:53;4.93;;;3.30;;
67747;SDS011;54543;50.712;6.070;2023-04-16T06:00:19;2.95;;;1.95;;
67747;SDS011;54543;50.712;6.070;2023-04-16T06:02:45;4.40;;;2.75;;
67747;SDS011;54543;50.712;6.070;2023-04-16T06:05:10;3.83;;;2.13;;
67747;SDS011;54543;50.712;6.070;2023-04-16T06:07:35;3.67;;;2.22;;
67747;SDS011;54543;50.712;6.070;2023-04-16T06:10:01;2.55;;;1.83;;
67747;SDS011;54543;50.712;6.070;2023-04-16T06:12:26;3.78;;;2.25;;
67747;SDS011;54543;50.712;6.070;2023-04-16T06:14:52;3.22;;;2.13;;
67747;SDS011;54543;50.712;6.070;2023-04-16T06:17:17;5.43;;;3.13;;
67747;SDS011;54543;50.712;6.070;2023-04-16T06:19:43;3.38;;;2.28;;
67747;SDS011;54543;50.712;6.070;2023-04-16T06:22:09;4.80;;;3.00;;
67747;SDS011;54543;50.712;6.070;2023-04-16T06:24:35;4.10;;;2.33;;
67747;SDS011;54543;50.712;6.070;2023-04-16T06:27:00;4.25;;;2.65;;
67747;SDS011;54543;50.712;6.070;2023-04-16T06:29:27;3.85;;;2.35;;
67747;SDS011;54543;50.712;6.070;2023-04-16T06:31:53;3.83;;;1.88;;
67747;SDS011;54543;50.712;6.070;2023-04-16T06:34:18;5.88;;;2.85;;
67747;SDS011;54543;50.712;6.070;2023-04-16T06:36:44;4.63;;;2.72;;
67747;SDS011;54543;50.712;6.070;2023-04-16T06:39:10;4.28;;;2.78;;
67747;SDS011;54543;50.712;6.070;2023-04-16T06:41:35;7.32;;;2.30;;
67747;SDS011;54543;50.712;6.070;2023-04-16T06:44:01;2.10;;;1.33;;
67747;SDS011;54543;50.712;6.070;2023-04-16T06:46:26;3.15;;;1.90;;
67747;SDS011;54543;50.712;6.070;2023-04-16T06:48:52;4.88;;;2.67;;
67747;SDS011;54543;50.712;6.070;2023-04-16T06:51:18;5.03;;;2.45;;
67747;SDS011;54543;50.712;6.070;2023-04-16T06:53:43;4.78;;;2.63;;
67747;SDS011;54543;50.712;6.070;2023-04-16T06:56:09;4.70;;;2.97;;
67747;SDS011;54543;50.712;6.070;2023-04-16T06:58:35;5.05;;;3.08;;
67747;SDS011;54543;50.712;6.070;2023-04-16T07:01:00;4.10;;;2.63;;
67747;SDS011;54543;50.712;6.070;2023-04-16T07:03:26;4.38;;;2.22;;
67747;SDS011;54543;50.712;6.070;2023-04-16T07:05:52;3.50;;;2.20;;
67747;SDS011;54543;50.712;6.070;2023-04-16T07:08:18;5.97;;;2.38;;
67747;SDS011;54543;50.712;6.070;2023-04-16T07:10:43;4.93;;;2.65;;
67747;SDS011;54543;50.712;6.070;2023-04-16T07:13:09;5.28;;;2.97;;
67747;SDS011;54543;50.712;6.070;2023-04-16T07:15:35;5.63;;;2.90;;
67747;SDS011;54543;50.712;6.070;2023-04-16T07:18:00;5.18;;;2.85;;
67747;SDS011;54543;50.712;6.070;2023-04-16T07:20:26;3.30;;;2.20;;
67747;SDS011;54543;50.712;6.070;2023-04-16T07:22:52;4.47;;;2.63;;
67747;SDS011;54543;50.712;6.070;2023-04-16T07:25:17;4.90;;;2.92;;
67747;SDS011;54543;50.712;6.070;2023-04-16T07:27:43;4.22;;;2.55;;
67747;SDS011;54543;50.712;6.070;2023-04-16T07:30:09;3.55;;;2.38;;
67747;SDS011;54543;50.712;6.070;2023-04-16T07:32:34;4.68;;;2.85;;
67747;SDS011;54543;50.712;6.070;2023-04-16T07:35:00;4.72;;;2.47;;
67747;SDS011;54543;50.712;6.070;2023-04-16T07:37:25;4.18;;;2.40;;
67747;SDS011;54543;50.712;6.070;2023-04-16T07:39:51;4.00;;;2.70;;
67747;SDS011;54543;50.712;6.070;2023-04-16T07:42:17;4.97;;;3.13;;
67747;SDS011;54543;50.712;6.070;2023-04-16T07:44:42;4.45;;;2.42;;
67747;SDS011;54543;50.712;6.070;2023-04-16T07:47:08;4.93;;;2.78;;
67747;SDS011;54543;50.712;6.070;2023-04-16T07:49:33;6.95;;;4.15;;
67747;SDS011;54543;50.712;6.070;2023-04-16T07:51:59;6.82;;;3.58;;
67747;SDS011;54543;50.712;6.070;2023-04-16T07:54:25;5.05;;;3.33;;
67747;SDS011;54543;50.712;6.070;2023-04-16T07:56:50;6.40;;;3.53;;
67747;SDS011;54543;50.712;6.070;2023-04-16T07:59:16;6.43;;;3.40;;
67747;SDS011;54543;50.712;6.070;2023-04-16T08:01:42;5.70;;;3.42;;
67747;SDS011;54543;50.712;6.070;2023-04-16T08:04:07;5.65;;;3.53;;
67747;SDS011;54543;50.712;6.070;2023-04-16T08:06:33;4.50;;;2.67;;
67747;SDS011;54543;50.712;6.070;2023-04-16T08:08:58;4.75;;;2.67;;
67747;SDS011;54543;50.712;6.070;2023-04-16T08:11:24;5.28;;;2.97;;
67747;SDS011;54543;50.712;6.070;2023-04-16T08:13:49;5.22;;;2.92;;
67747;SDS011;54543;50.712;6.070;2023-04-16T08:16:15;3.72;;;1.98;;
67747;SDS011;54543;50.712;6.070;2023-04-16T08:18:41;4.13;;;2.38;;
67747;SDS011;54543;50.712;6.070;2023-04-16T08:21:07;7.05;;;3.40;;
67747;SDS011;54543;50.712;6.070;2023-04-16T08:23:32;7.32;;;4.03;;
67747;SDS011;54543;50.712;6.070;2023-04-16T08:25:59;5.85;;;3.53;;
67747;SDS011;54543;50.712;6.070;2023-04-16T08:28:25;6.07;;;3.78;;
67747;SDS011;54543;50.712;6.070;2023-04-16T08:30:50;6.78;;;3.75;;
67747;SDS011;54543;50.712;6.070;2023-04-16T08:33:16;5.60;;;3.42;;
67747;SDS011;54543;50.712;6.070;2023-04-16T08:35:42;7.28;;;3.50;;
67747;SDS011;54543;50.712;6.070;2023-04-16T08:38:07;4.90;;;3.10;;
67747;SDS011;54543;50.712;6.070;2023-04-16T08:40:33;5.43;;;3.22;;
67747;SDS011;54543;50.712;6.070;2023-04-16T08:43:01;4.13;;;2.25;;
67747;SDS011;54543;50.712;6.070;2023-04-16T08:45:33;5.95;;;3.53;;
67747;SDS011;54543;50.712;6.070;2023-04-16T08:47:59;4.28;;;2.70;;
67747;SDS011;54543;50.712;6.070;2023-04-16T08:50:26;5.63;;;3.50;;
67747;SDS011;54543;50.712;6.070;2023-04-16T08:52:53;2.80;;;1.77;;
67747;SDS011;54543;50.712;6.070;2023-04-16T08:55:25;4.40;;;2.97;;
67747;SDS011;54543;50.712;6.070;2023-04-16T08:57:58;4.18;;;2.50;;
67747;SDS011;54543;50.712;6.070;2023-04-16T09:00:25;3.33;;;2.15;;
67747;SDS011;54543;50.712;6.070;2023-04-16T09:02:52;4.35;;;2.47;;
67747;SDS011;54543;50.712;6.070;2023-04-16T09:05:18;4.50;;;2.90;;
67747;SDS011;54543;50.712;6.070;2023-04-16T09:07:47;6.03;;;3.15;;
67747;SDS011;54543;50.712;6.070;2023-04-16T09:10:15;5.25;;;3.10;;
67747;SDS011;54543;50.712;6.070;2023-04-16T09:12:42;4.03;;;2.00;;
67747;SDS011;54543;50.712;6.070;2023-04-16T09:15:11;4.65;;;2.67;;
67747;SDS011;54543;50.712;6.070;2023-04-16T09:17:38;3.42;;;2.15;;
67747;SDS011;54543;50.712;6.070;2023-04-16T09:20:04;6.35;;;2.72;;
67747;SDS011;54543;50.712;6.070;2023-04-16T09:22:33;4.38;;;2.55;;
67747;SDS011;54543;50.712;6.070;2023-04-16T09:24:59;4.25;;;2.40;;
67747;SDS011;54543;50.712;6.070;2023-04-16T09:27:25;3.50;;;2.30;;
67747;SDS011;54543;50.712;6.070;2023-04-16T09:29:51;3.65;;;1.88;;
67747;SDS011;54543;50.712;6.070;2023-04-16T09:32:16;4.30;;;2.50;;
67747;SDS011;54543;50.712;6.070;2023-04-16T09:34:56;3.63;;;2.33;;
67747;SDS011;54543;50.712;6.070;2023-04-16T09:37:22;3.38;;;2.00;;
67747;SDS011;54543;50.712;6.070;2023-04-16T09:39:55;6.60;;;2.50;;
67747;SDS011;54543;50.712;6.070;2023-04-16T09:42:25;4.10;;;2.10;;
67747;SDS011;54543;50.712;6.070;2023-04-16T09:44:52;3.78;;;2.20;;
67747;SDS011;54543;50.712;6.070;2023-04-16T09:47:19;3.42;;;2.28;;
67747;SDS011;54543;50.712;6.070;2023-04-16T09:49:45;3.00;;;1.98;;
67747;SDS011;54543;50.712;6.070;2023-04-16T09:52:14;4.03;;;2.47;;
67747;SDS011;54543;50.712;6.070;2023-04-16T09:54:48;4.25;;;2.25;;
67747;SDS011;54543;50.712;6.070;2023-04-16T09:57:21;4.35;;;2.50;;
67747;SDS011;54543;50.712;6.070;2023-04-16T09:59:51;3.58;;;2.20;;
67747;SDS011;54543;50.712;6.070;2023-04-16T10:02:18;4.05;;;2.53;;
67747;SDS011;54543;50.712;6.070;2023-04-16T10:04:45;4.22;;;2.53;;
67747;SDS011;54543;50.712;6.070;2023-04-16T10:07:14;4.60;;;2.67;;
67747;SDS011;54543;50.712;6.070;2023-04-16T10:09:40;3.70;;;2.10;;
67747;SDS011;54543;50.712;6.070;2023-04-16T10:12:06;4.97;;;2.67;;
67747;SDS011;54543;50.712;6.070;2023-04-16T10:14:33;4.03;;;2.30;;
67747;SDS011;54543;50.712;6.070;2023-04-16T10:16:59;4.72;;;2.97;;
67747;SDS011;54543;50.712;6.070;2023-04-16T10:19:25;3.15;;;1.77;;
67747;SDS011;54543;50.712;6.070;2023-04-16T10:21:52;6.35;;;3.50;;
67747;SDS011;54543;50.712;6.070;2023-04-16T10:24:18;7.45;;;3.75;;
67747;SDS011;54543;50.712;6.070;2023-04-16T10:26:44;6.45;;;3.53;;
67747;SDS011;54543;50.712;6.070;2023-04-16T10:29:12;4.45;;;2.67;;
67747;SDS011;54543;50.712;6.070;2023-04-16T10:31:37;6.57;;;3.40;;
67747;SDS011;54543;50.712;6.070;2023-04-16T10:34:04;5.30;;;3.10;;
67747;SDS011;54543;50.712;6.070;2023-04-16T10:36:33;6.10;;;2.80;;
67747;SDS011;54543;50.712;6.070;2023-04-16T10:39:00;6.00;;;3.20;;
67747;SDS011;54543;50.712;6.070;2023-04-16T10:41:26;6.78;;;3.95;;
67747;SDS011;54543;50.712;6.070;2023-04-16T10:43:52;7.70;;;3.40;;
67747;SDS011;54543;50.712;6.070;2023-04-16T10:46:37;6.88;;;3.42;;
67747;SDS011;54543;50.712;6.070;2023-04-16T10:49:13;6.03;;;3.38;;
67747;SDS011;54543;50.712;6.070;2023-04-16T10:51:42;5.75;;;2.22;;
67747;SDS011;54543;50.712;6.070;2023-04-16T10:54:19;7.35;;;4.38;;
67747;SDS011;54543;50.712;6.070;2023-04-16T10:56:48;7.55;;;3.45;;
67747;SDS011;54543;50.712;6.070;2023-04-16T10:59:16;5.88;;;3.10;;
67747;SDS011;54543;50.712;6.070;2023-04-16T11:01:44;6.47;;;3.75;;
67747;SDS011;54543;50.712;6.070;2023-04-16T11:12:33;7.05;;;3.40;;
67747;SDS011;54543;50.712;6.070;2023-04-16T11:15:07;6.68;;;3.42;;
67747;SDS011;54543;50.712;6.070;2023-04-16T11:17:41;7.03;;;3.97;;
67747;SDS011;54543;50.712;6.070;2023-04-16T11:20:15;8.75;;;5.10;;
67747;SDS011;54543;50.712;6.070;2023-04-16T11:22:42;8.95;;;4.40;;
67747;SDS011;54543;50.712;6.070;2023-04-16T11:25:09;13.45;;;5.80;;
67747;SDS011;54543;50.712;6.070;2023-04-16T11:27:34;10.63;;;5.65;;
67747;SDS011;54543;50.712;6.070;2023-04-16T11:30:00;11.10;;;5.45;;
67747;SDS011;54543;50.712;6.070;2023-04-16T11:32:32;8.30;;;4.15;;
67747;SDS011;54543;50.712;6.070;2023-04-16T11:35:02;8.32;;;3.80;;
67747;SDS011;54543;50.712;6.070;2023-04-16T11:37:43;9.45;;;5.57;;
67747;SDS011;54543;50.712;6.070;2023-04-16T11:40:10;11.73;;;5.97;;
67747;SDS011;54543;50.712;6.070;2023-04-16T11:42:36;10.25;;;5.68;;
67747;SDS011;54543;50.712;6.070;2023-04-16T11:45:05;12.43;;;6.32;;
67747;SDS011;54543;50.712;6.070;2023-04-16T11:47:31;12.68;;;6.88;;
67747;SDS011;54543;50.712;6.070;2023-04-16T11:52:49;15.63;;;8.50;;
67747;SDS011;54543;50.712;6.070;2023-04-16T11:55:16;13.10;;;7.35;;
67747;SDS011;54543;50.712;6.070;2023-04-16T11:57:42;12.13;;;6.65;;
67747;SDS011;54543;50.712;6.070;2023-04-16T12:00:07;13.30;;;7.78;;
67747;SDS011;54543;50.712;6.070;2023-04-16T12:02:43;13.68;;;7.43;;
67747;SDS011;54543;50.712;6.070;2023-04-16T12:08:00;13.43;;;6.78;;
67747;SDS011;54543;50.712;6.070;2023-04-16T12:10:26;14.07;;;7.97;;
67747;SDS011;54543;50.712;6.070;2023-04-16T12:12:53;17.45;;;7.45;;
67747;SDS011;54543;50.712;6.070;2023-04-16T12:15:19;12.35;;;6.78;;
67747;SDS011;54543;50.712;6.070;2023-04-16T12:17:44;13.35;;;6.68;;
67747;SDS011;54543;50.712;6.070;2023-04-16T12:20:11;13.38;;;8.02;;
67747;SDS011;54543;50.712;6.070;2023-04-16T12:22:38;18.08;;;8.68;;
67747;SDS011;54543;50.712;6.070;2023-04-16T12:25:15;16.75;;;8.20;;
67747;SDS011;54543;50.712;6.070;2023-04-16T12:27:45;12.25;;;6.43;;
67747;SDS011;54543;50.712;6.070;2023-04-16T12:30:16;13.20;;;7.28;;
67747;SDS011;54543;50.712;6.070;2023-04-16T12:32:43;11.00;;;7.07;;
67747;SDS011;54543;50.712;6.070;2023-04-16T12:35:10;13.93;;;7.90;;
67747;SDS011;54543;50.712;6.070;2023-04-16T12:37:37;12.27;;;7.63;;
67747;SDS011;54543;50.712;6.070;2023-04-16T12:40:03;14.05;;;8.32;;
67747;SDS011;54543;50.712;6.070;2023-04-16T12:42:32;10.40;;;5.78;;
67747;SDS011;54543;50.712;6.070;2023-04-16T12:45:04;12.07;;;7.22;;
67747;SDS011;54543;50.712;6.070;2023-04-16T12:47:31;12.00;;;7.03;;
67747;SDS011;54543;50.712;6.070;2023-04-16T12:49:57;12.50;;;7.22;;
67747;SDS011;54543;50.712;6.070;2023-04-16T12:52:23;9.93;;;6.47;;
67747;SDS011;54543;50.712;6.070;2023-04-16T12:54:49;11.02;;;5.53;;
67747;SDS011;54543;50.712;6.070;2023-04-16T12:57:15;12.32;;;6.22;;
67747;SDS011;54543;50.712;6.070;2023-04-16T12:59:41;10.15;;;5.25;;
67747;SDS011;54543;50.712;6.070;2023-04-16T13:02:06;9.68;;;6.65;;
67747;SDS011;54543;50.712;6.070;2023-04-16T13:04:32;11.90;;;6.40;;
67747;SDS011;54543;50.712;6.070;2023-04-16T13:06:58;11.32;;;6.70;;
67747;SDS011;54543;50.712;6.070;2023-04-16T13:09:23;10.70;;;6.35;;
67747;SDS011;54543;50.712;6.070;2023-04-16T13:11:49;14.60;;;8.60;;
67747;SDS011;54543;50.712;6.070;2023-04-16T13:14:15;10.18;;;6.53;;
67747;SDS011;54543;50.712;6.070;2023-04-16T13:16:41;13.65;;;7.32;;
67747;SDS011;54543;50.712;6.070;2023-04-16T13:19:06;12.88;;;6.90;;
67747;SDS011;54543;50.712;6.070;2023-04-16T13:21:32;10.38;;;6.30;;
67747;SDS011;54543;50.712;6.070;2023-04-16T13:23:58;11.43;;;6.63;;
67747;SDS011;54543;50.712;6.070;2023-04-16T13:26:24;9.82;;;6.13;;
67747;SDS011;54543;50.712;6.070;2023-04-16T13:28:49;12.88;;;7.38;;
67747;SDS011;54543;50.712;6.070;2023-04-16T13:31:15;14.02;;;8.00;;
67747;SDS011;54543;50.712;6.070;2023-04-16T13:33:44;16.70;;;9.07;;
67747;SDS011;54543;50.712;6.070;2023-04-16T13:36:09;13.77;;;8.35;;
67747;SDS011;54543;50.712;6.070;2023-04-16T13:38:35;13.10;;;8.00;;
67747;SDS011;54543;50.712;6.070;2023-04-16T13:41:00;25.35;;;13.82;;
67747;SDS011;54543;50.712;6.070;2023-04-16T13:43:26;21.98;;;12.65;;
67747;SDS011;54543;50.712;6.070;2023-04-16T13:45:52;15.85;;;8.40;;
67747;SDS011;54543;50.712;6.070;2023-04-16T13:48:17;17.45;;;10.48;;
67747;SDS011;54543;50.712;6.070;2023-04-16T13:50:43;17.73;;;11.05;;
67747;SDS011;54543;50.712;6.070;2023-04-16T13:53:08;15.18;;;9.77;;
67747;SDS011;54543;50.712;6.070;2023-04-16T13:55:34;15.60;;;10.65;;
67747;SDS011;54543;50.712;6.070;2023-04-16T13:58:00;14.18;;;8.32;;
67747;SDS011;54543;50.712;6.070;2023-04-16T14:00:25;14.75;;;9.55;;
67747;SDS011;54543;50.712;6.070;2023-04-16T14:02:51;14.73;;;8.73;;
67747;SDS011;54543;50.712;6.070;2023-04-16T14:05:17;11.52;;;7.50;;
67747;SDS011;54543;50.712;6.070;2023-04-16T14:07:47;16.77;;;8.85;;
67747;SDS011;54543;50.712;6.070;2023-04-16T14:10:13;12.35;;;6.82;;
67747;SDS011;54543;50.712;6.070;2023-04-16T14:12:40;16.70;;;9.52;;
67747;SDS011;54543;50.712;6.070;2023-04-16T14:15:06;11.70;;;6.70;;
67747;SDS011;54543;50.712;6.070;2023-04-16T14:17:33;13.32;;;7.68;;
67747;SDS011;54543;50.712;6.070;2023-04-16T14:19:59;15.63;;;8.95;;
67747;SDS011;54543;50.712;6.070;2023-04-16T14:22:25;12.32;;;7.05;;
67747;SDS011;54543;50.712;6.070;2023-04-16T14:24:50;14.25;;;7.80;;
67747;SDS011;54543;50.712;6.070;2023-04-16T14:27:16;15.25;;;9.10;;
67747;SDS011;54543;50.712;6.070;2023-04-16T14:29:41;15.15;;;8.90;;
67747;SDS011;54543;50.712;6.070;2023-04-16T14:32:08;14.10;;;7.68;;
67747;SDS011;54543;50.712;6.070;2023-04-16T14:34:34;17.60;;;9.63;;
67747;SDS011;54543;50.712;6.070;2023-04-16T14:37:00;14.05;;;8.77;;
67747;SDS011;54543;50.712;6.070;2023-04-16T14:39:25;14.68;;;9.60;;
67747;SDS011;54543;50.712;6.070;2023-04-16T14:41:51;16.23;;;9.88;;
67747;SDS011;54543;50.712;6.070;2023-04-16T14:44:17;14.73;;;8.65;;
67747;SDS011;54543;50.712;6.070;2023-04-16T14:46:42;11.50;;;6.88;;
67747;SDS011;54543;50.712;6.070;2023-04-16T14:49:08;15.18;;;9.23;;
67747;SDS011;54543;50.712;6.070;2023-04-16T14:51:34;19.83;;;11.05;;